Time;durP1;ratioP1;P1;durP2;ratioP2;P2;SDS_P1;SDS_P2;PMS_P1;PMS_P2;Temp;Humidity;BMP_temperature;BMP_pressure;BME280_temperature;BME280_humidity;BME280_pressure;Samples;Min_cycle;Max_cycle;Signal;HPM_P1;HPM_P2
2021/12/10 00:03:01;;;;;;;47.35;12.78;;;;;;;;;;7487332;39;21499;-73
2021/12/10 00:08:06;;;;;;;37.50;12.18;;;;;;;;;;7487584;39;20224;-73
2021/12/10 00:13:13;;;;;;;39.10;12.03;;;;;;;;;;7487450;39;21455;-74
2021/12/10 00:18:19;;;;;;;46.92;11.40;;;;;;;;;;7488060;39;20182;-73
2021/12/10 00:23:24;;;;;;;35.78;11.35;;;;;;;;;;7487603;39;21665;-73
2021/12/10 00:28:31;;;;;;;40.08;11.50;;;;;;;;;;7488274;39;20233;-73
2021/12/10 00:33:37;;;;;;;34.63;10.63;;;;;;;;;;7487830;39;21942;-73
2021/12/10 00:38:42;;;;;;;34.07;11.40;;;;;;;;;;7487931;39;20876;-71
2021/12/10 00:43:48;;;;;;;32.45;10.35;;;;;;;;;;7488497;39;21421;-71
2021/12/10 00:48:52;;;;;;;37.35;12.33;;;;;;;;;;7487721;39;20467;-70
2021/12/10 00:53:57;;;;;;;31.82;9.73;;;;;;;;;;7488444;39;21485;-71
2021/12/10 00:59:03;;;;;;;27.07;9.78;;;;;;;;;;7488206;39;21478;-71
2021/12/10 01:04:10;;;;;;;30.77;9.40;;;;;;;;;;7486759;39;21530;-71
2021/12/10 01:09:16;;;;;;;26.52;8.73;;;;;;;;;;7487857;39;21442;-70
2021/12/10 01:14:30;;;;;;;35.40;9.13;;;;;;;;;;7487699;39;20302;-70
2021/12/10 01:30:20;;;;;;;29.37;8.73;;;;;;;;;;7488225;39;21471;-70
2021/12/10 01:35:27;;;;;;;35.50;9.80;;;;;;;;;;7487323;39;20435;-70
2021/12/10 01:40:32;;;;;;;34.25;10.03;;;;;;;;;;7487750;39;21635;-71
2021/12/10 01:45:45;;;;;;;30.50;9.70;;;;;;;;;;7488177;39;21492;-70
2021/12/10 01:50:45;;;;;;;32.50;9.70;;;;;;;;;;7486904;39;21495;-70
2021/12/10 01:55:51;;;;;;;35.10;10.63;;;;;;;;;;7488455;39;20449;-71
2021/12/10 02:01:16;;;;;;;32.48;9.93;;;;;;;;;;7486537;39;21259;-70
2021/12/10 02:06:20;;;;;;;32.55;9.95;;;;;;;;;;7487869;39;20164;-71
2021/12/10 02:11:25;;;;;;;30.82;9.40;;;;;;;;;;7487568;39;21809;-71
2021/12/10 02:16:30;;;;;;;29.05;8.80;;;;;;;;;;7487341;39;21687;-70
2021/12/10 02:21:37;;;;;;;24.50;8.23;;;;;;;;;;7487605;39;21497;-70
2021/12/10 02:26:43;;;;;;;24.87;7.95;;;;;;;;;;7487216;39;20316;-71
2021/12/10 02:31:49;;;;;;;18.70;6.22;;;;;;;;;;7488609;39;21161;-70
2021/12/10 02:36:54;;;;;;;16.12;5.28;;;;;;;;;;7488374;39;21486;-70
2021/12/10 02:41:59;;;;;;;11.97;4.10;;;;;;;;;;7488972;39;21395;-72
2021/12/10 02:47:04;;;;;;;10.93;4.10;;;;;;;;;;7488046;39;20199;-70
2021/12/10 02:52:10;;;;;;;8.15;3.62;;;;;;;;;;7488752;39;21447;-70
2021/12/10 02:57:17;;;;;;;7.40;3.17;;;;;;;;;;7488662;39;20390;-72
2021/12/10 03:02:24;;;;;;;9.15;3.50;;;;;;;;;;7488074;39;21467;-71
2021/12/10 03:07:30;;;;;;;7.85;3.35;;;;;;;;;;7489438;39;20207;-70
2021/12/10 03:12:35;;;;;;;5.97;2.90;;;;;;;;;;7488308;39;21438;-71
2021/12/10 03:17:41;;;;;;;7.15;2.90;;;;;;;;;;7488939;39;20216;-72
2021/12/10 03:22:46;;;;;;;7.25;3.33;;;;;;;;;;7488741;39;21495;-73
2021/12/10 03:27:52;;;;;;;6.55;2.55;;;;;;;;;;7488317;39;21524;-70
2021/12/10 03:32:57;;;;;;;8.40;3.20;;;;;;;;;;7488062;39;21573;-73
2021/12/10 03:38:04;;;;;;;7.17;2.80;;;;;;;;;;7487863;39;21567;-72
2021/12/10 03:43:11;;;;;;;9.00;2.90;;;;;;;;;;7488356;39;21456;-71
2021/12/10 03:48:17;;;;;;;7.40;3.17;;;;;;;;;;7486706;39;20207;-71
2021/12/10 03:53:22;;;;;;;8.30;2.70;;;;;;;;;;7488526;39;21473;-70
2021/12/10 03:58:27;;;;;;;8.08;3.02;;;;;;;;;;7487808;39;20239;-70
2021/12/10 04:03:33;;;;;;;6.90;2.87;;;;;;;;;;7486920;39;21550;-71
2021/12/10 04:08:38;;;;;;;6.42;2.67;;;;;;;;;;7487157;39;21927;-71
2021/12/10 04:13:44;;;;;;;6.65;3.02;;;;;;;;;;7487573;39;21318;-71
2021/12/10 04:18:50;;;;;;;6.08;2.42;;;;;;;;;;7487777;39;20869;-70
2021/12/10 04:23:56;;;;;;;6.08;2.55;;;;;;;;;;7488092;39;21501;-71
2021/12/10 04:29:00;;;;;;;7.77;2.80;;;;;;;;;;7487282;39;20431;-72
2021/12/10 04:34:05;;;;;;;5.90;2.52;;;;;;;;;;7487034;39;21315;-73
2021/12/10 04:39:10;;;;;;;6.40;2.22;;;;;;;;;;7488492;39;21481;-72
2021/12/10 04:44:15;;;;;;;6.50;2.42;;;;;;;;;;7486081;39;20179;-74
2021/12/10 04:49:20;;;;;;;7.10;2.65;;;;;;;;;;7487597;39;21821;-73
2021/12/10 04:54:25;;;;;;;6.07;2.33;;;;;;;;;;7487651;39;20924;-70
2021/12/10 04:59:31;;;;;;;7.95;2.98;;;;;;;;;;7487316;39;21448;-73
2021/12/10 05:04:36;;;;;;;7.50;2.55;;;;;;;;;;7487502;39;20173;-73
2021/12/10 05:09:41;;;;;;;7.50;2.83;;;;;;;;;;7488005;39;21542;-73
2021/12/10 05:14:46;;;;;;;7.47;2.72;;;;;;;;;;7487553;39;20483;-73
2021/12/10 05:19:52;;;;;;;6.23;2.77;;;;;;;;;;7486411;39;21207;-73
2021/12/10 05:24:56;;;;;;;10.58;2.95;;;;;;;;;;7488092;39;20222;-73
2021/12/10 05:30:01;;;;;;;9.00;3.92;;;;;;;;;;7487729;39;21584;-73
2021/12/10 05:35:07;;;;;;;6.37;2.65;;;;;;;;;;7486526;39;21455;-73
2021/12/10 05:40:13;;;;;;;9.40;3.40;;;;;;;;;;7488209;39;21490;-74
2021/12/10 05:45:19;;;;;;;9.07;2.90;;;;;;;;;;7485938;39;20295;-73
2021/12/10 05:50:35;;;;;;;;;;;;;;;;;;;;;
2021/12/10 05:55:32;;;;;;;9.38;2.67;;;;;;;;;;7486481;39;20221;-80
2021/12/10 06:00:39;;;;;;;6.50;2.35;;;;;;;;;;7484623;39;21525;-78
2021/12/10 06:05:43;;;;;;;9.20;3.87;;;;;;;;;;7486490;39;20238;-78
2021/12/10 06:10:48;;;;;;;4.97;1.97;;;;;;;;;;7485991;39;21490;-71
2021/12/10 06:15:53;;;;;;;6.83;2.58;;;;;;;;;;7486717;39;20289;-76
2021/12/10 06:20:58;;;;;;;8.68;3.00;;;;;;;;;;7486852;39;21487;-78
2021/12/10 06:26:04;;;;;;;4.30;1.87;;;;;;;;;;7487141;39;20252;-69
2021/12/10 06:31:08;;;;;;;7.50;3.27;;;;;;;;;;7485872;39;21412;-78
2021/12/10 06:36:14;;;;;;;7.13;2.67;;;;;;;;;;7486845;39;20277;-78
2021/12/10 06:41:18;;;;;;;9.83;3.00;;;;;;;;;;7487315;39;21482;-71
2021/12/10 06:46:23;;;;;;;8.33;3.00;;;;;;;;;;7487689;39;20452;-71
2021/12/10 06:51:28;;;;;;;8.58;2.50;;;;;;;;;;7488109;39;21304;-71
2021/12/10 06:56:35;;;;;;;7.37;2.30;;;;;;;;;;7486723;39;20264;-71
2021/12/10 07:01:41;;;;;;;7.73;2.50;;;;;;;;;;7486114;39;21254;-71
2021/12/10 07:06:47;;;;;;;9.63;3.05;;;;;;;;;;7485907;39;20264;-76
2021/12/10 07:11:53;;;;;;;7.22;2.58;;;;;;;;;;7484366;39;21491;-71
2021/12/10 07:16:57;;;;;;;8.03;2.70;;;;;;;;;;7489098;39;20164;-76
2021/12/10 07:22:02;;;;;;;8.48;2.58;;;;;;;;;;7488711;39;21481;-75
2021/12/10 07:27:11;;;;;;;8.23;2.70;;;;;;;;;;7485966;39;20235;-77
2021/12/10 07:32:13;;;;;;;6.87;2.27;;;;;;;;;;7487113;39;21969;-71
2021/12/10 07:37:18;;;;;;;5.60;2.10;;;;;;;;;;7487213;39;21096;-75
2021/12/10 07:42:24;;;;;;;9.63;2.08;;;;;;;;;;7488155;39;21154;-70
2021/12/10 07:47:34;;;;;;;8.30;2.62;;;;;;;;;;7486214;39;21517;-69
2021/12/10 07:52:35;;;;;;;7.37;2.47;;;;;;;;;;7485593;39;21547;-76
2021/12/10 07:57:40;;;;;;;7.58;2.70;;;;;;;;;;7487387;39;20944;-69
2021/12/10 08:02:45;;;;;;;9.50;2.37;;;;;;;;;;7486058;39;21892;-70
2021/12/10 08:07:51;;;;;;;8.95;2.80;;;;;;;;;;7486741;39;20229;-69
2021/12/10 08:12:56;;;;;;;6.08;2.55;;;;;;;;;;7487743;39;20219;-73
2021/12/10 08:18:01;;;;;;;6.77;2.33;;;;;;;;;;7488423;39;20263;-75
2021/12/10 08:23:06;;;;;;;8.13;2.87;;;;;;;;;;7488469;39;21800;-75
2021/12/10 08:28:10;;;;;;;11.75;3.60;;;;;;;;;;7485879;39;21335;-76
2021/12/10 08:33:15;;;;;;;9.58;2.75;;;;;;;;;;7487901;39;21511;-75
2021/12/10 08:38:20;;;;;;;11.33;2.77;;;;;;;;;;7487185;39;20233;-69
2021/12/10 08:43:25;;;;;;;6.53;2.60;;;;;;;;;;7487497;39;21537;-69
2021/12/10 08:48:31;;;;;;;8.58;2.90;;;;;;;;;;7487431;39;21577;-75
2021/12/10 08:53:36;;;;;;;7.47;2.75;;;;;;;;;;7484638;39;21451;-74
2021/12/10 08:58:41;;;;;;;6.97;2.40;;;;;;;;;;7486471;39;20230;-68
2021/12/10 09:03:48;;;;;;;6.90;2.90;;;;;;;;;;7488010;39;21504;-68
2021/12/10 09:08:53;;;;;;;8.00;1.97;;;;;;;;;;7486828;39;20303;-68
2021/12/10 09:13:58;;;;;;;7.47;2.40;;;;;;;;;;7484793;39;21682;-68
2021/12/10 09:19:05;;;;;;;9.50;2.87;;;;;;;;;;7484403;39;20200;-70
2021/12/10 09:24:10;;;;;;;7.70;3.10;;;;;;;;;;7485072;39;21507;-70
2021/12/10 09:29:17;;;;;;;8.48;2.87;;;;;;;;;;7485697;39;20268;-68
2021/12/10 09:34:21;;;;;;;6.27;2.30;;;;;;;;;;7486508;39;21655;-68
2021/12/10 09:39:28;;;;;;;5.92;2.00;;;;;;;;;;7486547;39;21889;-69
2021/12/10 09:44:33;;;;;;;10.68;3.33;;;;;;;;;;7486400;39;20753;-78
2021/12/10 09:49:38;;;;;;;7.92;2.98;;;;;;;;;;7483693;39;21451;-72
2021/12/10 09:54:43;;;;;;;6.83;2.65;;;;;;;;;;7485306;39;20236;-72
2021/12/10 09:59:51;;;;;;;8.70;3.13;;;;;;;;;;7485849;39;21525;-75
2021/12/10 10:04:56;;;;;;;9.50;2.95;;;;;;;;;;7485514;39;21582;-76
2021/12/10 10:10:03;;;;;;;7.45;2.90;;;;;;;;;;7481686;39;21473;-76
2021/12/10 10:15:10;;;;;;;8.50;3.12;;;;;;;;;;7486634;39;20221;-70
2021/12/10 10:20:16;;;;;;;9.65;2.90;;;;;;;;;;7484786;39;21497;-69
2021/12/10 10:25:23;;;;;;;7.57;2.57;;;;;;;;;;7480611;39;20979;-69
2021/12/10 10:30:30;;;;;;;7.55;3.08;;;;;;;;;;7483740;39;21494;-71
2021/12/10 10:35:57;;;;;;;6.15;2.05;;;;;;;;;;7485343;39;20325;-70
2021/12/10 10:41:04;;;;;;;7.33;3.02;;;;;;;;;;7487224;39;21685;-71
2021/12/10 10:46:11;;;;;;;6.00;2.12;;;;;;;;;;7484866;39;20229;-73
2021/12/10 10:51:17;;;;;;;7.70;2.73;;;;;;;;;;7486118;39;21454;-79
2021/12/10 10:56:23;;;;;;;8.38;2.12;;;;;;;;;;7486558;39;20173;-79
2021/12/10 11:01:57;;;;;;;6.60;1.67;;;;;;;;;;7488560;39;21469;-74
2021/12/10 11:06:56;;;;;;;6.42;1.90;;;;;;;;;;7488574;39;21375;-73
2021/12/10 11:12:02;;;;;;;9.35;2.95;;;;;;;;;;7489022;39;21413;-73
2021/12/10 11:17:08;;;;;;;6.80;2.20;;;;;;;;;;7489145;39;20257;-78
2021/12/10 11:22:15;;;;;;;8.15;2.60;;;;;;;;;;7489112;39;21698;-78
2021/12/10 11:27:21;;;;;;;7.20;2.65;;;;;;;;;;7488672;39;20234;-78
2021/12/10 11:32:46;;;;;;;8.55;2.15;;;;;;;;;;7488676;39;21123;-74
2021/12/10 11:37:54;;;;;;;7.75;2.33;;;;;;;;;;7489177;39;20244;-80
2021/12/10 11:43:05;;;;;;;4.37;1.40;;;;;;;;;;7489294;39;21689;-77
2021/12/10 11:48:41;;;;;;;6.87;2.40;;;;;;;;;;7488147;39;20411;-73
2021/12/10 11:53:34;;;;;;;4.78;1.60;;;;;;;;;;7488098;39;21506;-80
2021/12/10 11:58:39;;;;;;;5.90;2.08;;;;;;;;;;7488271;39;20249;-74
2021/12/10 12:03:44;;;;;;;9.13;2.65;;;;;;;;;;7488091;39;21610;-77
2021/12/10 12:08:49;;;;;;;6.87;2.47;;;;;;;;;;7488565;39;20221;-77
2021/12/10 12:13:57;;;;;;;7.62;2.58;;;;;;;;;;7488464;39;21481;-79
2021/12/10 12:19:03;;;;;;;9.65;2.87;;;;;;;;;;7488402;39;21360;-77
2021/12/10 12:29:55;;;;;;;7.17;2.52;;;;;;;;;;7488716;39;20492;-77
2021/12/10 12:35:03;;;;;;;8.83;3.10;;;;;;;;;;7488964;39;21412;-76
2021/12/10 12:40:09;;;;;;;6.33;2.42;;;;;;;;;;7488116;39;21517;-76
2021/12/10 12:45:15;;;;;;;7.40;2.47;;;;;;;;;;7488249;39;20229;-79
2021/12/10 12:50:22;;;;;;;8.25;2.98;;;;;;;;;;7488432;39;21477;-75
2021/12/10 13:00:57;;;;;;;12.83;3.80;;;;;;;;;;7488632;39;21599;-75
2021/12/10 13:06:21;;;;;;;10.93;2.83;;;;;;;;;;7488261;39;20394;-75
2021/12/10 13:11:30;;;;;;;7.15;2.05;;;;;;;;;;7488282;39;21874;-76
2021/12/10 13:16:54;;;;;;;8.05;2.72;;;;;;;;;;7488462;39;20229;-76
2021/12/10 13:22:19;;;;;;;5.50;2.05;;;;;;;;;;7488393;39;21499;-76
2021/12/10 13:27:25;;;;;;;7.53;2.90;;;;;;;;;;7488230;39;20168;-76
2021/12/10 13:32:30;;;;;;;4.72;2.05;;;;;;;;;;7488327;39;21487;-76
2021/12/10 13:37:35;;;;;;;7.00;2.22;;;;;;;;;;7488393;39;20316;-78
2021/12/10 13:42:40;;;;;;;6.62;2.47;;;;;;;;;;7488738;39;21075;-77
2021/12/10 13:47:51;;;;;;;6.92;2.22;;;;;;;;;;7489171;39;20177;-75
2021/12/10 13:52:53;;;;;;;5.77;2.07;;;;;;;;;;7487591;39;21408;-77
2021/12/10 13:58:18;;;;;;;7.05;2.27;;;;;;;;;;7487756;39;20841;-76
2021/12/10 14:03:43;;;;;;;8.63;2.77;;;;;;;;;;7487643;39;21490;-76
2021/12/10 14:08:49;;;;;;;9.40;3.40;;;;;;;;;;7487821;39;21480;-75
2021/12/10 14:14:14;;;;;;;8.18;2.83;;;;;;;;;;7487932;39;21504;-75
2021/12/10 14:19:39;;;;;;;9.70;3.10;;;;;;;;;;7488032;39;20225;-76
2021/12/10 14:25:03;;;;;;;9.55;3.02;;;;;;;;;;7488284;39;21477;-77
2021/12/10 14:30:10;;;;;;;10.13;3.12;;;;;;;;;;7489317;39;21459;-77
2021/12/10 14:35:19;;;;;;;9.68;3.05;;;;;;;;;;7488705;39;20169;-74
2021/12/10 14:40:24;;;;;;;7.35;2.67;;;;;;;;;;7488819;39;21464;-76
2021/12/10 14:45:29;;;;;;;9.77;3.73;;;;;;;;;;7485798;39;21459;-78
2021/12/10 14:50:35;;;;;;;8.50;2.72;;;;;;;;;;7485244;39;21555;-74
2021/12/10 14:55:40;;;;;;;8.80;2.92;;;;;;;;;;7488334;39;21668;-74
2021/12/10 15:00:47;;;;;;;11.15;3.72;;;;;;;;;;7487841;39;21761;-73
2021/12/10 15:05:53;;;;;;;14.18;4.15;;;;;;;;;;7488637;39;20221;-74
2021/12/10 15:10:58;;;;;;;12.77;3.80;;;;;;;;;;7488846;39;21517;-72
2021/12/10 15:16:35;;;;;;;10.20;4.15;;;;;;;;;;7488309;39;20169;-74
2021/12/10 15:21:31;;;;;;;10.88;3.45;;;;;;;;;;7488592;39;21733;-72
2021/12/10 15:26:37;;;;;;;11.35;3.62;;;;;;;;;;7488005;39;20384;-71
2021/12/10 15:31:42;;;;;;;11.33;3.27;;;;;;;;;;7488275;39;21434;-74
2021/12/10 15:36:46;;;;;;;6.73;2.70;;;;;;;;;;7488226;39;20203;-75
2021/12/10 15:41:51;;;;;;;7.95;2.70;;;;;;;;;;7486982;39;21517;-72
2021/12/10 15:46:58;;;;;;;8.10;2.77;;;;;;;;;;7487273;39;20225;-72
2021/12/10 15:52:05;;;;;;;5.87;1.52;;;;;;;;;;7487031;39;21585;-72
2021/12/10 15:57:29;;;;;;;7.40;2.55;;;;;;;;;;7486992;39;20174;-72
2021/12/10 16:02:34;;;;;;;12.20;3.13;;;;;;;;;;7487136;39;21563;-72
2021/12/10 16:07:43;;;;;;;6.97;2.12;;;;;;;;;;7486580;39;20225;-75
2021/12/10 16:12:48;;;;;;;9.58;3.58;;;;;;;;;;7486349;39;21468;-75
2021/12/10 16:17:54;;;;;;;10.88;3.10;;;;;;;;;;7485452;39;20915;-72
2021/12/10 16:23:00;;;;;;;10.78;2.52;;;;;;;;;;7486717;39;21481;-73
2021/12/10 16:28:07;;;;;;;7.33;2.70;;;;;;;;;;7487038;39;20230;-71
2021/12/10 16:33:12;;;;;;;10.32;3.35;;;;;;;;;;7485735;39;21666;-69
2021/12/10 16:38:18;;;;;;;12.47;3.45;;;;;;;;;;7485781;39;20884;-73
2021/12/10 16:48:50;;;;;;;11.38;3.33;;;;;;;;;;7485415;39;20224;-74
2021/12/10 16:54:15;;;;;;;11.77;2.80;;;;;;;;;;7487122;39;21457;-73
2021/12/10 16:59:20;;;;;;;8.55;3.02;;;;;;;;;;7487930;39;20351;-71
2021/12/10 17:04:26;;;;;;;7.20;1.98;;;;;;;;;;7487227;39;21654;-73
2021/12/10 17:09:33;;;;;;;9.53;3.20;;;;;;;;;;7486466;39;20466;-73
2021/12/10 17:14:39;;;;;;;8.83;3.40;;;;;;;;;;7487339;39;21521;-74
2021/12/10 17:19:45;;;;;;;11.53;3.10;;;;;;;;;;7484732;39;21503;-74
2021/12/10 17:24:52;;;;;;;10.08;3.20;;;;;;;;;;7484951;39;20989;-74
2021/12/10 17:29:59;;;;;;;9.35;3.30;;;;;;;;;;7483909;39;21659;-73
2021/12/10 17:35:05;;;;;;;10.05;2.83;;;;;;;;;;7484372;39;21593;-71
2021/12/10 17:40:30;;;;;;;6.78;1.70;;;;;;;;;;7486788;39;21434;-74
2021/12/10 17:45:37;;;;;;;8.37;2.53;;;;;;;;;;7486408;39;20190;-71
2021/12/10 17:50:44;;;;;;;9.33;2.65;;;;;;;;;;7488152;39;21464;-74
2021/12/10 17:55:50;;;;;;;9.15;3.30;;;;;;;;;;7487449;39;20253;-76
2021/12/10 18:00:57;;;;;;;7.45;2.77;;;;;;;;;;7490030;39;21508;-74
2021/12/10 18:06:01;;;;;;;10.68;3.35;;;;;;;;;;7490010;39;20225;-75
2021/12/10 18:11:08;;;;;;;7.63;2.73;;;;;;;;;;7488756;39;21456;-74
2021/12/10 18:16:14;;;;;;;6.08;2.35;;;;;;;;;;7488502;39;20178;-73
2021/12/10 18:21:20;;;;;;;11.73;2.75;;;;;;;;;;7489740;39;21419;-75
2021/12/10 18:26:27;;;;;;;9.25;3.08;;;;;;;;;;7489628;39;20168;-75
2021/12/10 18:31:33;;;;;;;11.60;3.10;;;;;;;;;;7486932;39;21468;-75
2021/12/10 18:36:38;;;;;;;8.83;2.93;;;;;;;;;;7489197;39;20427;-74
2021/12/10 18:41:44;;;;;;;9.68;3.47;;;;;;;;;;7489630;39;21458;-73
2021/12/10 18:46:51;;;;;;;10.80;3.55;;;;;;;;;;7490018;39;20207;-76
2021/12/10 18:51:56;;;;;;;8.95;3.02;;;;;;;;;;7487293;39;21477;-74
2021/12/10 18:57:22;;;;;;;10.13;3.45;;;;;;;;;;7489594;39;20743;-73
2021/12/10 19:02:28;;;;;;;8.57;2.63;;;;;;;;;;7488706;39;21699;-74
2021/12/10 19:07:39;;;;;;;8.03;2.87;;;;;;;;;;7488822;39;20237;-74
2021/12/10 19:12:45;;;;;;;12.45;3.62;;;;;;;;;;7485191;39;21507;-74
2021/12/10 19:17:51;;;;;;;8.08;3.10;;;;;;;;;;7487837;39;20213;-70
2021/12/10 19:22:57;;;;;;;10.55;3.37;;;;;;;;;;7487012;39;21515;-71
2021/12/10 19:28:04;;;;;;;6.20;2.37;;;;;;;;;;7486846;39;21088;-81
2021/12/10 19:33:10;;;;;;;15.20;3.42;;;;;;;;;;7486435;39;21490;-74
2021/12/10 19:38:35;;;;;;;9.78;3.02;;;;;;;;;;7485847;39;20955;-77
2021/12/10 19:43:41;;;;;;;9.40;2.70;;;;;;;;;;7487643;39;21520;-73
2021/12/10 19:48:47;;;;;;;10.08;2.80;;;;;;;;;;7486573;39;21000;-75
2021/12/10 19:54:12;;;;;;;7.03;2.47;;;;;;;;;;7486647;39;21517;-75
2021/12/10 19:59:37;;;;;;;9.95;2.20;;;;;;;;;;7487258;39;20225;-75
2021/12/10 20:05:04;;;;;;;8.65;2.98;;;;;;;;;;7485401;39;21475;-76
2021/12/10 20:10:10;;;;;;;7.17;2.83;;;;;;;;;;7486864;39;21468;-74
2021/12/10 20:15:16;;;;;;;8.08;2.45;;;;;;;;;;7485525;39;20200;-73
2021/12/10 20:20:41;;;;;;;6.67;2.43;;;;;;;;;;7483704;39;21561;-73
2021/12/10 20:25:48;;;;;;;10.60;2.77;;;;;;;;;;7486847;39;20226;-76
2021/12/10 20:30:58;;;;;;;8.30;3.25;;;;;;;;;;7486328;39;21699;-73
2021/12/10 20:36:21;;;;;;;9.75;3.08;;;;;;;;;;7480650;39;40129;-75
2021/12/10 20:41:34;;;;;;;10.63;3.45;;;;;;;;;;7488642;39;21557;-73
